Emma, Missouri
Current Conditions -  °F | °C
As of 3:58 PM on Tuesday 21 Oct 2014 (Local Time) from KSZL Reporting Station
Clear Clear  
Wind Chill: 72°   Ceiling: Unl
Heat Index: 72°   Visibility: 7mi
Dew Point: 42°   Wind: 2mph
Humidity: 34%   Direction: 270°W
Pressure: 30.08"   Gusts: NA
Location:  38.97°N, 93.49°W
Report Text: KSZL 212058Z AUTO 27002KT 7SM CLR 22/06 A3008 RMK AO2 SLP187 T02230058 57015 $
Loading
Personal Weather Stations






























Interactive Weather Map
Tropical Storm Tracking
New forecast layout! Learn more

10-Day Weather Forecast

Advertisements
Track Severe Weather on mobile